createdAt,value
2023-02-19T00:02:32.449Z,8.74
2023-02-19T00:05:35.524Z,8.67
2023-02-19T00:08:38.807Z,8.76
2023-02-19T00:11:42.818Z,8.71
2023-02-19T00:14:44.766Z,8.73
2023-02-19T00:17:46.525Z,8.68
2023-02-19T00:20:48.327Z,8.69
2023-02-19T00:23:50.474Z,8.61
2023-02-19T00:26:53.642Z,8.58
2023-02-19T00:29:55.440Z,8.62
2023-02-19T00:32:57.284Z,8.46
2023-02-19T00:36:00.516Z,8.46
2023-02-19T00:39:02.598Z,8.52
2023-02-19T00:42:05.919Z,8.53
2023-02-19T00:45:08.548Z,8.42
2023-02-19T00:48:10.331Z,8.37
2023-02-19T00:51:12.557Z,8.46
2023-02-19T00:54:15.098Z,8.34
2023-02-19T00:57:18.218Z,8.32
2023-02-19T01:00:20.205Z,8.32
2023-02-19T01:03:21.967Z,8.31
2023-02-19T01:06:24.033Z,8.33
2023-02-19T01:09:25.777Z,8.20
2023-02-19T01:12:29.038Z,8.21
2023-02-19T01:15:32.503Z,8.26
2023-02-19T01:18:34.686Z,8.29
2023-02-19T01:21:36.469Z,8.24
2023-02-19T01:24:38.590Z,8.33
2023-02-19T01:27:41.708Z,8.37
2023-02-19T01:30:43.590Z,8.36
2023-02-19T01:33:45.742Z,8.24
2023-02-19T01:36:47.663Z,8.16
2023-02-19T01:39:49.381Z,8.20
2023-02-19T01:42:52.601Z,8.21
2023-02-19T01:45:55.252Z,8.26
2023-02-19T01:48:59.322Z,8.15
2023-02-19T01:52:05.923Z,8.21
2023-02-19T01:55:12.665Z,8.22
2023-02-19T01:58:16.942Z,8.21
2023-02-19T02:01:18.989Z,8.20
2023-02-19T02:04:20.845Z,8.28
2023-02-19T02:07:22.961Z,8.27
2023-02-19T02:10:24.789Z,8.34
2023-02-19T02:13:28.396Z,8.29
2023-02-19T02:16:37.052Z,8.26
2023-02-19T02:20:03.076Z,8.22
2023-02-19T02:23:13.944Z,8.29
2023-02-19T02:26:25.894Z,8.17
2023-02-19T02:29:56.238Z,8.07
2023-02-19T02:33:07.030Z,8.10
2023-02-19T02:36:13.933Z,7.99
2023-02-19T02:39:20.553Z,8.08
2023-02-19T02:42:22.340Z,7.98
2023-02-19T02:45:29.508Z,8.01
2023-02-19T02:48:37.142Z,7.92
2023-02-19T02:51:43.490Z,7.98
2023-02-19T02:54:45.397Z,7.97
2023-02-19T02:57:47.287Z,7.95
2023-02-19T03:00:54.980Z,8.04
2023-02-19T03:04:01.375Z,8.00
2023-02-19T03:07:08.724Z,7.95
2023-02-19T03:10:13.533Z,8.01
2023-02-19T03:13:18.571Z,8.02
2023-02-19T03:16:28.670Z,7.94
2023-02-19T03:19:37.828Z,8.06
2023-02-19T03:22:42.363Z,8.05
2023-02-19T03:25:44.594Z,8.04
2023-02-19T03:28:49.349Z,7.99
2023-02-19T03:31:56.692Z,8.06
2023-02-19T03:35:02.398Z,8.04
2023-02-19T03:38:08.878Z,8.08
2023-02-19T03:41:18.122Z,8.05
2023-02-19T03:44:23.153Z,8.08
2023-02-19T03:47:29.355Z,8.07
2023-02-19T03:50:42.481Z,8.18
2023-02-19T03:53:53.104Z,8.04
2023-02-19T03:57:02.046Z,8.02
2023-02-19T04:00:09.202Z,8.02
2023-02-19T04:03:20.821Z,8.05
2023-02-19T04:06:26.547Z,8.05
2023-02-19T04:09:35.476Z,8.03
2023-02-19T04:12:40.282Z,8.13
2023-02-19T04:15:45.202Z,8.06
2023-02-19T04:18:51.840Z,8.07
2023-02-19T04:21:56.324Z,8.05
2023-02-19T04:24:58.300Z,8.03
2023-02-19T04:28:00.180Z,7.94
2023-02-19T04:31:02.393Z,7.89
2023-02-19T04:34:05.689Z,7.92
2023-02-19T04:37:07.691Z,7.88
2023-02-19T04:40:10.991Z,7.87
2023-02-19T04:43:12.852Z,7.88
2023-02-19T04:46:14.729Z,7.89
2023-02-19T04:49:17.943Z,7.93
2023-02-19T04:52:19.688Z,7.84
2023-02-19T04:55:21.508Z,7.82
2023-02-19T04:58:23.250Z,7.88
2023-02-19T05:01:25.439Z,7.79
2023-02-19T05:04:28.665Z,7.87
2023-02-19T05:07:30.447Z,7.83
2023-02-19T05:10:32.216Z,7.73
2023-02-19T05:13:34.048Z,7.79
2023-02-19T05:16:35.870Z,7.80
2023-02-19T05:19:39.068Z,7.75
2023-02-19T05:22:40.839Z,7.82
2023-02-19T05:25:42.610Z,7.74
2023-02-19T05:28:44.858Z,7.79
2023-02-19T05:31:46.744Z,7.65
2023-02-19T05:34:51.018Z,7.70
2023-02-19T05:37:52.822Z,7.52
2023-02-19T05:40:54.576Z,7.53
2023-02-19T05:43:57.267Z,7.57
2023-02-19T05:46:59.076Z,7.59
2023-02-19T05:50:02.386Z,7.60
2023-02-19T05:53:04.880Z,7.47
2023-02-19T05:56:23.734Z,7.40
2023-02-19T05:59:26.688Z,7.44
2023-02-19T06:02:28.628Z,7.44
2023-02-19T06:05:31.793Z,7.46
2023-02-19T06:08:33.582Z,7.44
2023-02-19T06:11:35.888Z,7.44
2023-02-19T06:14:37.667Z,7.32
2023-02-19T06:17:39.483Z,7.31
2023-02-19T06:20:42.637Z,7.38
2023-02-19T06:23:45.084Z,7.39
2023-02-19T06:26:46.880Z,7.31
2023-02-19T06:29:48.617Z,7.37
2023-02-19T06:32:52.398Z,7.41
2023-02-19T06:35:58.639Z,7.26
2023-02-19T06:39:00.922Z,7.31
2023-02-19T06:42:02.705Z,7.27
2023-02-19T06:45:04.878Z,7.26
2023-02-19T06:48:06.650Z,7.32
2023-02-19T06:51:11.979Z,7.30
2023-02-19T06:54:13.987Z,7.36
2023-02-19T06:57:15.833Z,7.31
2023-02-19T07:00:18.418Z,7.34
2023-02-19T07:03:20.530Z,7.30
2023-02-19T07:06:25.121Z,7.31
2023-02-19T07:09:26.926Z,7.33
2023-02-19T07:12:28.707Z,7.34
2023-02-19T07:15:30.722Z,7.34
2023-02-19T07:18:32.500Z,7.39
2023-02-19T07:21:35.639Z,7.40
2023-02-19T07:24:37.438Z,7.40
2023-02-19T07:27:39.219Z,7.36
2023-02-19T07:30:40.984Z,7.39
2023-02-19T07:33:43.047Z,7.42
2023-02-19T07:36:46.251Z,7.40
2023-02-19T07:39:48.763Z,7.48
2023-02-19T07:42:50.590Z,7.52
2023-02-19T07:45:52.765Z,7.42
2023-02-19T07:48:54.559Z,7.40
2023-02-19T07:51:57.821Z,7.46
2023-02-19T07:54:59.804Z,7.43
2023-02-19T07:58:01.576Z,7.45
2023-02-19T08:01:08.711Z,7.46
2023-02-19T08:04:12.886Z,7.50
2023-02-19T08:07:16.134Z,7.66
2023-02-19T08:10:18.183Z,7.61
2023-02-19T08:13:20.283Z,7.61
2023-02-19T08:16:36.910Z,7.62
2023-02-19T08:19:44.054Z,7.63
2023-02-19T08:22:47.252Z,7.66
2023-02-19T08:25:50.861Z,7.75
2023-02-19T08:28:52.665Z,7.76
2023-02-19T08:31:54.605Z,7.77
2023-02-19T08:34:56.428Z,7.78
2023-02-19T08:37:59.644Z,7.79
2023-02-19T08:41:04.730Z,7.74
2023-02-19T08:44:06.583Z,7.78
2023-02-19T08:47:08.368Z,7.76
2023-02-19T08:50:11.396Z,7.75
2023-02-19T08:53:14.545Z,7.79
2023-02-19T08:56:16.877Z,7.84
2023-02-19T08:59:18.671Z,7.84
2023-02-19T09:02:20.472Z,7.93
2023-02-19T09:05:22.268Z,7.92
2023-02-19T09:08:25.450Z,7.92
2023-02-19T09:11:27.337Z,7.91
2023-02-19T09:14:31.790Z,8.03
2023-02-19T09:17:33.599Z,8.09
2023-02-19T09:20:35.416Z,7.94
2023-02-19T09:23:38.873Z,7.67
2023-02-19T09:26:40.696Z,7.13
2023-02-19T09:29:42.864Z,7.18
2023-02-19T09:32:44.784Z,7.14
2023-02-19T09:35:46.547Z,7.08
2023-02-19T09:38:49.937Z,7.13
2023-02-19T09:41:55.355Z,7.16
2023-02-19T09:45:00.219Z,7.18
2023-02-19T09:48:02.466Z,7.17
2023-02-19T09:51:05.228Z,7.22
2023-02-19T09:54:16.242Z,7.21
2023-02-19T09:57:21.369Z,7.26
2023-02-19T10:00:26.441Z,7.36
2023-02-19T10:03:30.930Z,7.55
2023-02-19T10:06:32.832Z,7.68
2023-02-19T10:09:38.281Z,7.66
2023-02-19T10:12:42.953Z,7.80
2023-02-19T10:15:48.718Z,7.96
2023-02-19T10:18:51.375Z,7.93
2023-02-19T10:21:53.348Z,7.97
2023-02-19T10:24:57.572Z,8.06
2023-02-19T10:28:00.223Z,8.14
2023-02-19T10:31:05.229Z,8.31
2023-02-19T10:34:18.018Z,8.34
2023-02-19T10:37:19.859Z,8.30
2023-02-19T10:40:27.600Z,8.40
2023-02-19T10:43:32.439Z,8.49
2023-02-19T10:46:41.266Z,8.32
2023-02-19T10:49:43.840Z,8.25
2023-02-19T10:52:53.050Z,8.09
2023-02-19T10:56:08.746Z,7.95
2023-02-19T10:59:25.486Z,8.05
2023-02-19T11:02:28.326Z,7.99
2023-02-19T11:05:30.131Z,8.09
2023-02-19T11:08:35.453Z,8.15
2023-02-19T11:11:40.098Z,8.04
2023-02-19T11:14:43.332Z,8.03
2023-02-19T11:17:45.993Z,8.01
2023-02-19T11:20:51.499Z,8.07
2023-02-19T11:23:54.325Z,8.10
2023-02-19T11:26:58.887Z,8.23
2023-02-19T11:30:34.476Z,8.39
2023-02-19T11:33:44.846Z,8.58
2023-02-19T11:36:49.022Z,8.62
2023-02-19T11:39:51.905Z,8.64
2023-02-19T11:43:02.658Z,8.75
2023-02-19T11:46:13.606Z,8.83
2023-02-19T11:49:27.078Z,8.81
2023-02-19T11:52:37.077Z,9.02
2023-02-19T11:55:55.054Z,9.07
2023-02-19T11:59:03.294Z,9.04
2023-02-19T12:02:41.189Z,9.06
2023-02-19T12:05:54.991Z,9.16
2023-02-19T12:09:12.631Z,9.33
2023-02-19T12:12:31.122Z,9.19
2023-02-19T12:15:49.352Z,9.07
2023-02-19T12:19:11.741Z,8.94
2023-02-19T12:22:27.296Z,8.81
2023-02-19T12:25:48.775Z,8.72
2023-02-19T12:29:13.899Z,8.66
2023-02-19T12:32:35.528Z,8.57
2023-02-19T12:35:51.107Z,8.56
2023-02-19T12:39:03.039Z,8.50
2023-02-19T12:42:11.568Z,8.34
2023-02-19T12:45:21.367Z,8.07
2023-02-19T12:48:34.539Z,7.87
2023-02-19T12:51:43.728Z,7.93
2023-02-19T12:54:48.535Z,8.26
2023-02-19T12:57:52.108Z,8.40
2023-02-19T13:00:57.276Z,8.47
2023-02-19T13:04:16.392Z,8.57
2023-02-19T13:07:24.599Z,8.80
2023-02-19T13:10:30.949Z,9.04
2023-02-19T13:13:37.822Z,9.07
2023-02-19T13:16:44.376Z,8.89
2023-02-19T13:19:52.174Z,8.89
2023-02-19T13:23:01.446Z,8.79
2023-02-19T13:26:22.052Z,8.79
2023-02-19T13:29:43.487Z,8.81
2023-02-19T13:33:02.765Z,8.75
2023-02-19T13:36:13.116Z,8.77
2023-02-19T13:39:20.123Z,8.63
2023-02-19T13:42:26.773Z,8.72
2023-02-19T13:45:53.883Z,8.66
2023-02-19T13:49:37.552Z,8.63
2023-02-19T13:52:42.675Z,8.72
2023-02-19T13:55:51.752Z,8.63
2023-02-19T13:58:56.802Z,8.75
2023-02-19T14:02:24.653Z,8.73
2023-02-19T14:05:56.965Z,8.83
2023-02-19T14:09:00.695Z,8.88
2023-02-19T14:12:05.707Z,8.94
2023-02-19T14:15:40.537Z,9.03
2023-02-19T14:18:45.131Z,9.11
2023-02-19T14:21:47.272Z,9.25
2023-02-19T14:24:55.897Z,9.13
2023-02-19T14:28:02.550Z,9.01
2023-02-19T14:31:19.594Z,8.83
2023-02-19T14:34:25.164Z,8.82
2023-02-19T14:37:27.883Z,8.75
2023-02-19T14:40:37.011Z,8.77
2023-02-19T14:43:40.588Z,8.75
2023-02-19T14:46:50.345Z,8.76
2023-02-19T14:49:55.835Z,8.84
2023-02-19T14:53:01.441Z,8.91
2023-02-19T14:56:07.912Z,9.01
2023-02-19T14:59:23.427Z,9.00
2023-02-19T15:02:26.626Z,9.06
2023-02-19T15:05:31.494Z,8.95
2023-02-19T15:08:38.491Z,8.87
2023-02-19T15:11:43.977Z,8.84
2023-02-19T15:14:48.910Z,8.65
2023-02-19T15:17:54.125Z,8.62
2023-02-19T15:21:02.827Z,8.61
2023-02-19T15:24:08.136Z,8.56
2023-02-19T15:27:18.766Z,8.40
2023-02-19T15:30:23.547Z,8.47
2023-02-19T15:33:27.397Z,8.38
2023-02-19T15:36:32.043Z,8.34
2023-02-19T15:39:37.335Z,8.27
2023-02-19T15:42:48.513Z,8.21
2023-02-19T15:45:53.480Z,8.16
2023-02-19T15:49:02.030Z,8.17
2023-02-19T15:52:10.666Z,8.13
2023-02-19T15:55:31.003Z,8.17
2023-02-19T15:58:39.904Z,8.10
2023-02-19T16:01:43.645Z,8.10
2023-02-19T16:04:46.872Z,8.06
2023-02-19T16:08:06.669Z,8.04
2023-02-19T16:11:28.129Z,8.08
2023-02-19T16:14:33.953Z,8.09
2023-02-19T16:17:36.760Z,8.00
2023-02-19T16:20:40.017Z,7.93
2023-02-19T16:23:43.034Z,7.90
2023-02-19T16:26:47.268Z,7.89
2023-02-19T16:29:52.314Z,7.86
2023-02-19T16:33:29.309Z,7.90
2023-02-19T16:36:39.009Z,7.82
2023-02-19T16:39:44.015Z,7.82
2023-02-19T16:43:38.390Z,7.80
2023-02-19T16:46:43.871Z,7.82
2023-02-19T16:49:46.999Z,7.80
2023-02-19T16:52:54.397Z,7.85
2023-02-19T16:55:59.525Z,7.74
2023-02-19T16:59:01.860Z,7.67
2023-02-19T17:02:07.450Z,7.70
2023-02-19T17:05:10.833Z,7.61
2023-02-19T17:08:35.225Z,7.68
2023-02-19T17:11:38.316Z,7.57
2023-02-19T17:14:40.846Z,7.66
2023-02-19T17:17:45.629Z,7.62
2023-02-19T17:20:54.623Z,7.58
2023-02-19T17:23:58.021Z,7.60
2023-02-19T17:27:00.894Z,7.69
2023-02-19T17:30:04.000Z,7.56
2023-02-19T17:33:08.761Z,7.49
2023-02-19T17:36:17.917Z,7.48
2023-02-19T17:39:20.576Z,7.41
2023-02-19T17:42:23.518Z,7.26
2023-02-19T17:45:26.594Z,7.25
2023-02-19T17:48:31.751Z,7.20
2023-02-19T17:51:34.546Z,7.16
2023-02-19T17:54:37.068Z,7.19
2023-02-19T17:57:40.226Z,7.20
2023-02-19T18:00:43.584Z,7.25
2023-02-19T18:03:47.749Z,7.16
2023-02-19T18:06:50.384Z,7.37
2023-02-19T18:09:52.607Z,7.29
2023-02-19T18:12:56.733Z,7.35
2023-02-19T18:15:59.441Z,7.40
2023-02-19T18:19:03.951Z,7.43
2023-02-19T18:22:07.046Z,7.48
2023-02-19T18:25:11.140Z,7.58
2023-02-19T18:28:14.776Z,7.58
2023-02-19T18:31:17.643Z,7.56
2023-02-19T18:34:22.541Z,7.60
2023-02-19T18:37:26.509Z,7.52
2023-02-19T18:40:30.918Z,7.60
2023-02-19T18:43:33.155Z,7.49
2023-02-19T18:46:35.430Z,7.45
2023-02-19T18:49:39.454Z,7.48
2023-02-19T18:52:42.025Z,7.42
2023-02-19T18:55:44.814Z,7.47
2023-02-19T18:58:50.361Z,7.39
2023-02-19T19:01:53.969Z,7.52
2023-02-19T19:05:04.049Z,7.33
2023-02-19T19:08:07.095Z,7.44
2023-02-19T19:11:11.628Z,7.37
2023-02-19T19:14:14.811Z,7.54
2023-02-19T19:17:18.749Z,7.52
2023-02-19T19:20:27.215Z,7.49
2023-02-19T19:23:30.724Z,7.48
2023-02-19T19:26:33.658Z,7.51
2023-02-19T19:29:36.779Z,7.31
2023-02-19T19:32:40.042Z,7.32
2023-02-19T19:35:44.441Z,7.38
2023-02-19T19:38:47.803Z,7.38
2023-02-19T19:41:55.136Z,7.45
2023-02-19T19:44:58.311Z,7.60
2023-02-19T19:48:01.967Z,7.61
2023-02-19T19:51:06.529Z,7.61
2023-02-19T19:54:09.205Z,7.55
2023-02-19T19:57:12.985Z,7.37
2023-02-19T20:00:18.642Z,7.35
2023-02-19T20:03:21.944Z,7.21
2023-02-19T20:06:28.762Z,7.15
2023-02-19T20:09:31.568Z,7.14
2023-02-19T20:12:35.019Z,7.15
2023-02-19T20:15:37.959Z,7.18
2023-02-19T20:18:41.785Z,7.16
2023-02-19T20:21:49.052Z,6.97
2023-02-19T20:24:54.653Z,6.88
2023-02-19T20:27:57.080Z,6.92
2023-02-19T20:31:01.461Z,6.94
2023-02-19T20:34:04.626Z,6.90
2023-02-19T20:37:09.618Z,6.88
2023-02-19T20:40:12.824Z,6.77
2023-02-19T20:43:17.082Z,6.79
2023-02-19T20:46:20.144Z,6.72
2023-02-19T20:49:27.346Z,6.71
2023-02-19T20:52:31.449Z,6.74
2023-02-19T20:55:34.383Z,6.85
2023-02-19T20:58:37.274Z,6.82
2023-02-19T21:01:41.849Z,6.79
2023-02-19T21:04:44.395Z,6.76
2023-02-19T21:07:52.031Z,6.89
2023-02-19T21:11:08.962Z,6.91
2023-02-19T21:14:12.035Z,6.98
2023-02-19T21:17:15.113Z,6.94
2023-02-19T21:20:17.744Z,6.99
2023-02-19T21:23:21.542Z,6.96
2023-02-19T21:26:24.996Z,6.86
2023-02-19T21:29:27.562Z,6.84
2023-02-19T21:32:29.909Z,6.83
2023-02-19T21:35:32.716Z,6.92
2023-02-19T21:38:37.486Z,6.92
2023-02-19T21:41:39.566Z,6.91
2023-02-19T21:44:43.143Z,6.91
2023-02-19T21:47:45.915Z,6.85
2023-02-19T21:50:48.225Z,6.94
2023-02-19T21:53:51.477Z,6.89
2023-02-19T21:56:54.353Z,6.73
2023-02-19T21:59:56.178Z,6.70
2023-02-19T22:02:57.980Z,6.75
2023-02-19T22:06:01.713Z,6.69
2023-02-19T22:09:05.099Z,6.75
2023-02-19T22:12:06.976Z,6.73
2023-02-19T22:15:08.726Z,6.73
2023-02-19T22:18:10.536Z,6.75
2023-02-19T22:21:12.318Z,6.70
2023-02-19T22:24:17.689Z,6.73
2023-02-19T22:27:19.701Z,6.66
2023-02-19T22:30:21.638Z,6.66
2023-02-19T22:33:23.503Z,6.66
2023-02-19T22:36:27.996Z,6.77
2023-02-19T22:39:31.149Z,6.80
2023-02-19T22:42:35.679Z,6.76
2023-02-19T22:45:37.729Z,6.80
2023-02-19T22:48:39.614Z,6.74
2023-02-19T22:51:47.888Z,6.64
2023-02-19T22:54:52.503Z,6.69
2023-02-19T22:57:54.286Z,6.76
2023-02-19T23:00:56.113Z,6.66
2023-02-19T23:03:59.248Z,6.64
2023-02-19T23:07:01.048Z,6.59
2023-02-19T23:10:04.644Z,6.63
2023-02-19T23:13:06.444Z,6.58
2023-02-19T23:16:08.222Z,6.69
2023-02-19T23:19:11.089Z,6.62
2023-02-19T23:22:12.857Z,6.68
2023-02-19T23:25:16.066Z,6.73
2023-02-19T23:28:17.838Z,6.63
2023-02-19T23:31:19.739Z,6.62
2023-02-19T23:34:21.887Z,6.65
2023-02-19T23:37:23.629Z,6.63
2023-02-19T23:40:26.813Z,6.59
2023-02-19T23:43:28.711Z,6.50
2023-02-19T23:46:31.067Z,6.54
2023-02-19T23:49:33.044Z,6.53
2023-02-19T23:52:34.814Z,6.51
2023-02-19T23:55:37.970Z,6.48
2023-02-19T23:58:39.979Z,6.50
